Weather observations for the past three days for
Baltimore, Inner Harbor
Metric (Imperial)
Date Time (edt) Wind (kph) Vis. (km) Weather Sky Cond. Temperature (ºC) Relative Humidity Wind Chill (°C) Heat Index (°C) Pressure Precipitation (cm)
Air Dwpt 6 hour altimeter (cm) sea level (mb) 1 hr 3 hr 6 hr
Max. Min.
04 07:53 Calm 0.00 NULL NULL 12.2 2.2 12.2 10 51% 76.15 1015.1
04 06:53 Calm 0.00 NULL NULL 10.6 2.2 56% 76.15 1015.3
04 05:53 Calm 0.00 NULL NULL 10.6 1.7 54% 76.15 1015.3
04 04:53 Calm 0.00 NULL NULL 10.6 1.1 52% 76.17 1015.6
04 03:53 Calm 0.00 NULL NULL 10.6 1.1 52% 76.17 1015.6
04 02:53 Calm 0.00 NULL NULL 10.6 0 48% 76.2 1015.8
04 01:53 Calm 0.00 NULL NULL 10.6 -0.6 16.7 10 46% 76.2 1015.8
04 00:53 Calm 0.00 NULL NULL 11.1 -0.6 45% 76.2 1015.8
03 23:53 Calm 0.00 NULL NULL 11.1 -1.1 43% 76.17 1015.6
03 22:53 Calm 0.00 NULL NULL 12.8 -1.7 37% 76.15 1015.2
03 21:53 Calm 0.00 NULL NULL 12.8 -2.2 36% 76.15 1015.1
03 20:53 Calm 0.00 NULL NULL 14.4 -3.3 29% 76.12 1014.7
03 19:53 Calm 0.00 NULL NULL 16.7 -5 17.8 14.4 22% 76.07 1014.2
03 18:53 Calm 0.00 NULL NULL 17.2 -5.6 21% 76.05 1014.0
03 17:53 Calm 0.00 NULL NULL 17.8 -5.6 20% 76.07 1014.0
03 16:53 Calm 0.00 NULL NULL 17.2 -6.1 20% 76.07 1014.0
03 15:53 Calm 0.00 NULL NULL 16.7 -5 22% 76.1 1014.5
03 14:53 Calm 0.00 NULL NULL 15.6 -5 24% 76.15 1015.3
03 13:53 Calm 0.00 NULL NULL 14.4 -5.6 15 7.8 25% 76.2 1015.8
03 12:53 Calm 0.00 NULL NULL 13.3 -6.1 26% 76.23 1016.1
03 11:53 Calm 0.00 NULL NULL 12.8 -6.7 25% 76.25 1016.5
03 10:53 Calm 0.00 NULL NULL 11.1 -6.1 30% 76.25 1016.6
03 09:53 Calm 0.00 NULL NULL 10 -5.6 33% 76.28 1016.9
03 08:53 Calm 0.00 NULL NULL 8.9 -3.9 41% 76.28 1016.9
03 07:53 Calm 0.00 NULL NULL 7.8 -2.8 8.9 6.1 47% 76.25 1016.4
03 06:53 Calm 0.00 NULL NULL 6.1 -1.7 58% 76.17 1015.5
03 05:53 Calm 0.00 NULL NULL 6.1 -1.1 60% 76.1 1014.6
03 04:53 Calm 0.00 NULL NULL 6.7 -0.6 60% 76.1 1014.3
03 03:53 Calm 0.00 NULL NULL 7.2 -0.6 58% 76.05 1013.7
03 02:53 Calm 0.00 NULL NULL 7.8 -0.6 56% 76.02 1013.5
03 01:53 Calm 0.00 NULL NULL 8.3 0 13.9 8.3 56% 76.02 1013.4
03 00:53 Calm 0.00 NULL NULL 10 -1.1 46% 76.02 1013.5
02 23:53 Calm 0.00 NULL NULL 10.6 -0.6 46% 76.05 1013.7
02 22:53 Calm 0.00 NULL NULL 12.2 -0.6 42% 76.05 1013.7
02 21:53 Calm 0.00 NULL NULL 12.8 -1.7 37% 76.02 1013.6
02 20:53 Calm 0.00 NULL NULL 13.3 -1.7 36% 76 1013.1
02 19:53 Calm 0.00 NULL NULL 13.9 -2.2 16.7 13.9 33% 75.95 1012.4
02 18:53 Calm 0.00 NULL NULL 15 -2.8 29% 75.92 1012.2
02 17:53 Calm 0.00 NULL NULL 16.1 -3.3 26% 75.9 1011.9
02 16:53 Calm 0.00 NULL NULL 15.6 -2.8 28% 75.9 1011.7
02 15:53 Calm 0.00 NULL NULL 16.1 -3.3 26% 75.9 1011.7
02 14:53 Calm 0.00 NULL NULL 16.7 -2.2 28% 75.97 1012.8
02 13:53 Calm 0.00 NULL NULL 15.6 -0.6 15.6 10 33% 76.02 1013.6
02 12:53 Calm 0.00 NULL NULL 14.4 -1.1 35% 76.07 1014.1
02 11:53 Calm 0.00 NULL NULL 14.4 -1.1 35% 76.07 1014.3
02 10:53 Calm 0.00 NULL NULL 12.8 -0.6 40% 76.1 1014.4
02 09:53 Calm 0.00 NULL NULL 11.7 0 45% 76.07 1014.1
02 07:53 Calm 0.00 NULL NULL 10 2.2 13.9 10 59% 76.07 1014.3
02 06:53 Calm 0.00 NULL NULL 10 1.7 57% 76.05 1013.9
02 05:53 Calm 0.00 NULL NULL 11.1 2.2 55% 76 1013.1
02 04:53 Calm 0.00 NULL NULL 12.2 3.9 57% 76 1013.0
02 03:53 Calm 0.00 NULL NULL 12.8 5.6 62% 75.95 1012.6
02 02:53 Calm 0.00 NULL NULL 13.3 5 57% 75.92 1012.3
02 01:53 Calm 0.00 NULL NULL 13.9 5.6 16.1 13.9 58% 75.97 1012.8
02 00:53 Calm 0.00 NULL NULL 13.9 6.7 62% 76 1013.0
01 23:53 Calm 0.00 NULL NULL 14.4 7.2 62% 75.97 1012.7
01 22:53 Calm 0.00 NULL NULL 15 6.7 58% 75.9 1011.9
01 21:53 Calm 0.00 NULL NULL 15 5.6 54% 75.92 1012.1
01 20:53 Calm 0.00 NULL NULL 15.6 3.3 44% 75.87 1011.5
01 19:53 Calm 0.00 NULL NULL 16.1 2.8 19.4 16.1 41% 75.82 1010.9
01 18:53 Calm 0.00 NULL NULL 17.8 2.2 35% 75.82 1010.8
01 17:53 Calm 0.00 NULL NULL 18.9 2.8 34% 75.82 1010.9
01 16:53 Calm 0.00 NULL NULL 17.8 3.3 38% 75.84 1010.9
01 15:53 Calm 0.00 NULL NULL 17.8 3.3 38% 75.9 1011.9
01 14:53 Calm 0.00 NULL NULL 17.2 2.2 37% 75.97 1012.7
01 13:53 Calm 0.00 NULL NULL 17.2 1.1 17.8 8.9 34% 76.05 1013.7
01 12:53 Calm 0.00 NULL NULL 16.7 1.7 37% 76.07 1014.1
01 11:53 Calm 0.00 NULL NULL 15.6 0.6 36% 76.15 1015.1
01 10:53 Calm 0.00 NULL NULL 14.4 1.1 41% 76.2 1015.8
01 09:53 Calm 0.00 NULL NULL 13.3 1.7 46% 76.25 1016.6
01 08:53 Calm 0.00 NULL NULL 11.1 2.8 57% 76.3 1017.1
Date Time (edt) Wind (kph) Vis. (km) Weather Sky Cond. Air Dwpt Max. Min. Relative Humidity Wind Chill (°C) Heat Index (°C) altimeter (cm) sea level (mb) 1 hr 3 hr 6 hr
6 hour
Temperature (ºC) Pressure Precipitation (cm)